Time;durP1;ratioP1;P1;durP2;ratioP2;P2;SDS_P1;SDS_P2;PMS_P1;PMS_P2;Temp;Humidity;BMP_temperature;BMP_pressure;BME280_temperature;BME280_humidity;BME280_pressure;Samples;Min_cycle;Max_cycle;Signal;HPM_P1;HPM_P2
2022/03/29 00:00:04;;;;;;;34.23;24.13;;;;;;;;;;509370;28;1918;-82
2022/03/29 00:00:20;;;;;;;34.25;24.20;;;;;;;;;;510538;29;1251;-82
2022/03/29 00:00:36;;;;;;;34.22;23.90;;;;;;;;;;509947;29;1600;-81
2022/03/29 00:00:52;;;;;;;33.00;23.33;;;;;;;;;;513360;28;929;-81
2022/03/29 00:01:09;;;;;;;33.73;23.53;;;;;;;;;;513457;28;1150;-81
2022/03/29 00:01:24;;;;;;;34.17;24.17;;;;;;;;;;512885;28;1428;-81
2022/03/29 00:01:40;;;;;;;33.83;24.60;;;;;;;;;;511111;28;1453;-81
2022/03/29 00:01:55;;;;;;;35.63;25.03;;;;;;;;;;509525;29;1461;-81
2022/03/29 00:02:11;;;;;;;36.92;25.48;;;;;;;;;;509601;29;1442;-81
2022/03/29 00:02:26;;;;;;;37.00;25.20;;;;;;;;;;509078;29;1364;-81
2022/03/29 00:02:41;;;;;;;35.23;24.43;;;;;;;;;;509362;29;1564;-81
2022/03/29 00:02:57;;;;;;;31.83;23.67;;;;;;;;;;509539;29;1664;-81
2022/03/29 00:03:12;;;;;;;32.00;23.60;;;;;;;;;;511373;28;1334;-81
2022/03/29 00:03:27;;;;;;;33.77;24.27;;;;;;;;;;509897;29;1157;-81
2022/03/29 00:03:43;;;;;;;33.72;24.23;;;;;;;;;;511897;28;897;-81
2022/03/29 00:03:58;;;;;;;33.70;24.00;;;;;;;;;;513312;28;1375;-81
2022/03/29 00:04:15;;;;;;;33.47;23.73;;;;;;;;;;511188;29;1355;-82
2022/03/29 00:04:30;;;;;;;34.13;23.80;;;;;;;;;;509471;29;1504;-82
2022/03/29 00:04:46;;;;;;;35.10;24.57;;;;;;;;;;509389;29;1497;-82
2022/03/29 00:05:04;;;;;;;35.97;24.17;;;;;;;;;;509682;29;923;-82
2022/03/29 00:05:19;;;;;;;37.15;24.02;;;;;;;;;;510359;29;1294;-81
2022/03/29 00:05:36;;;;;;;37.28;24.88;;;;;;;;;;510104;29;1599;-81
2022/03/29 00:05:51;;;;;;;35.50;24.45;;;;;;;;;;511145;28;1367;-82
2022/03/29 00:06:07;;;;;;;34.17;23.75;;;;;;;;;;512516;28;1455;-81
2022/03/29 00:06:22;;;;;;;34.80;24.20;;;;;;;;;;514415;28;1556;-81
2022/03/29 00:06:37;;;;;;;35.30;24.65;;;;;;;;;;512218;28;1281;-82
2022/03/29 00:06:54;;;;;;;34.40;24.47;;;;;;;;;;512541;28;1302;-82
2022/03/29 00:07:09;;;;;;;35.25;24.48;;;;;;;;;;509960;29;1501;-82
2022/03/29 00:07:24;;;;;;;35.50;24.83;;;;;;;;;;512104;28;1317;-82
2022/03/29 00:07:40;;;;;;;33.40;24.50;;;;;;;;;;513215;28;1382;-82
2022/03/29 00:07:56;;;;;;;34.60;24.83;;;;;;;;;;510350;29;1293;-82
2022/03/29 00:08:11;;;;;;;33.97;24.63;;;;;;;;;;509756;29;1186;-82
2022/03/29 00:08:26;;;;;;;33.67;23.93;;;;;;;;;;511834;29;2268;-81
2022/03/29 00:08:42;;;;;;;33.73;24.13;;;;;;;;;;511869;29;917;-81
2022/03/29 00:08:58;;;;;;;32.73;24.53;;;;;;;;;;511874;29;850;-81
2022/03/29 00:09:14;;;;;;;33.25;24.55;;;;;;;;;;511833;29;1529;-81
2022/03/29 00:09:29;;;;;;;34.57;24.77;;;;;;;;;;509796;29;1486;-81
2022/03/29 00:09:44;;;;;;;36.50;25.05;;;;;;;;;;508253;29;1530;-82
2022/03/29 00:10:01;;;;;;;37.67;25.40;;;;;;;;;;511613;28;1310;-82
2022/03/29 00:10:17;;;;;;;37.70;25.60;;;;;;;;;;512402;28;1565;-82
2022/03/29 00:10:33;;;;;;;35.07;24.80;;;;;;;;;;513769;28;1203;-82
2022/03/29 00:10:48;;;;;;;35.47;24.67;;;;;;;;;;513849;28;1536;-81
2022/03/29 00:11:04;;;;;;;36.70;25.17;;;;;;;;;;511837;29;1302;-81
2022/03/29 00:11:19;;;;;;;35.90;24.80;;;;;;;;;;512158;28;1957;-81
2022/03/29 00:11:35;;;;;;;34.47;24.23;;;;;;;;;;510288;29;1461;-81
2022/03/29 00:11:50;;;;;;;32.90;23.73;;;;;;;;;;512578;28;1578;-82
2022/03/29 00:12:06;;;;;;;32.13;23.40;;;;;;;;;;511994;29;1263;-81
2022/03/29 00:12:21;;;;;;;32.20;23.38;;;;;;;;;;512436;28;845;-81
2022/03/29 00:12:37;;;;;;;34.40;23.67;;;;;;;;;;510777;28;1468;-82
2022/03/29 00:12:53;;;;;;;34.75;24.15;;;;;;;;;;510335;29;1416;-82
2022/03/29 00:13:08;;;;;;;33.30;24.35;;;;;;;;;;511761;28;1449;-82
2022/03/29 00:13:24;;;;;;;33.93;24.17;;;;;;;;;;512069;28;1383;-82
2022/03/29 00:13:40;;;;;;;32.97;23.55;;;;;;;;;;512034;28;1193;-82
2022/03/29 00:13:55;;;;;;;33.70;23.73;;;;;;;;;;511931;28;1578;-82
2022/03/29 00:14:12;;;;;;;35.73;24.93;;;;;;;;;;511664;29;1724;-82
2022/03/29 00:14:27;;;;;;;36.22;24.50;;;;;;;;;;510327;28;1413;-82
2022/03/29 00:14:43;;;;;;;37.47;24.53;;;;;;;;;;511675;29;1269;-82
2022/03/29 00:14:58;;;;;;;37.85;25.48;;;;;;;;;;511763;29;831;-82
2022/03/29 00:15:13;;;;;;;37.13;25.37;;;;;;;;;;509894;29;1314;-82
2022/03/29 00:15:29;;;;;;;38.23;25.77;;;;;;;;;;510384;29;838;-82
2022/03/29 00:15:45;;;;;;;37.75;25.52;;;;;;;;;;513085;28;1612;-82
2022/03/29 00:16:00;;;;;;;35.53;24.90;;;;;;;;;;511832;29;1122;-82
2022/03/29 00:16:16;;;;;;;35.63;25.17;;;;;;;;;;511729;29;1437;-81
2022/03/29 00:16:32;;;;;;;35.75;25.90;;;;;;;;;;512359;28;1201;-82
2022/03/29 00:16:47;;;;;;;36.28;25.58;;;;;;;;;;513819;28;1426;-82
2022/03/29 00:17:03;;;;;;;36.87;24.77;;;;;;;;;;513874;28;1471;-82
2022/03/29 00:17:18;;;;;;;35.20;24.55;;;;;;;;;;516054;28;1012;-82
2022/03/29 00:17:34;;;;;;;34.17;24.73;;;;;;;;;;515923;28;1455;-82
2022/03/29 00:17:49;;;;;;;34.50;24.90;;;;;;;;;;514218;28;1889;-82
2022/03/29 00:18:05;;;;;;;33.53;24.30;;;;;;;;;;515675;28;1384;-82
2022/03/29 00:18:20;;;;;;;32.25;24.15;;;;;;;;;;514650;28;1411;-82
2022/03/29 00:18:35;;;;;;;32.10;24.50;;;;;;;;;;516019;28;1011;-81
2022/03/29 00:18:56;;;;;;;32.87;24.83;;;;;;;;;;513600;28;1728;-82
2022/03/29 00:19:12;;;;;;;35.35;25.70;;;;;;;;;;514444;28;1412;-82
2022/03/29 00:19:28;;;;;;;36.57;25.80;;;;;;;;;;513873;28;854;-82
2022/03/29 00:19:43;;;;;;;37.88;25.80;;;;;;;;;;511724;28;1391;-82
2022/03/29 00:19:59;;;;;;;38.23;25.90;;;;;;;;;;511751;29;1910;-82
2022/03/29 00:20:19;;;;;;;39.58;26.70;;;;;;;;;;512499;28;2133;-82
2022/03/29 00:20:34;;;;;;;37.13;26.40;;;;;;;;;;514270;28;1491;-82
2022/03/29 00:20:50;;;;;;;35.57;25.60;;;;;;;;;;512574;28;1455;-82
2022/03/29 00:21:05;;;;;;;34.63;25.13;;;;;;;;;;509867;29;1246;-82
2022/03/29 00:21:21;;;;;;;34.73;24.73;;;;;;;;;;509952;29;1166;-81
2022/03/29 00:21:36;;;;;;;36.42;25.30;;;;;;;;;;510002;29;886;-81
2022/03/29 00:21:52;;;;;;;37.03;25.53;;;;;;;;;;509758;29;1552;-81
2022/03/29 00:22:07;;;;;;;36.60;25.08;;;;;;;;;;508995;29;1394;-81
2022/03/29 00:22:22;;;;;;;35.23;25.07;;;;;;;;;;510012;29;1179;-81
2022/03/29 00:22:38;;;;;;;34.97;24.65;;;;;;;;;;510011;29;1052;-81
2022/03/29 00:22:53;;;;;;;34.60;24.83;;;;;;;;;;508718;29;1641;-81
2022/03/29 00:23:09;;;;;;;34.03;24.87;;;;;;;;;;510672;29;1542;-81
2022/03/29 00:23:24;;;;;;;35.83;24.85;;;;;;;;;;509961;29;1311;-81
2022/03/29 00:23:39;;;;;;;36.97;25.27;;;;;;;;;;509816;29;1189;-81
2022/03/29 00:23:55;;;;;;;37.05;25.80;;;;;;;;;;510916;28;1529;-82
2022/03/29 00:24:10;;;;;;;37.07;25.67;;;;;;;;;;511866;28;1253;-82
2022/03/29 00:24:26;;;;;;;34.90;25.37;;;;;;;;;;513730;28;1373;-82
2022/03/29 00:24:41;;;;;;;34.07;25.23;;;;;;;;;;512837;28;1492;-82
2022/03/29 00:24:56;;;;;;;35.10;25.03;;;;;;;;;;509795;29;1370;-82
2022/03/29 00:25:12;;;;;;;35.77;25.30;;;;;;;;;;509728;29;1409;-82
2022/03/29 00:25:27;;;;;;;36.08;25.77;;;;;;;;;;510185;29;830;-82
2022/03/29 00:25:43;;;;;;;37.20;26.08;;;;;;;;;;512107;28;1359;-82
2022/03/29 00:25:58;;;;;;;37.97;25.80;;;;;;;;;;513776;28;1378;-82
2022/03/29 00:26:14;;;;;;;37.20;25.93;;;;;;;;;;512406;28;1493;-82
2022/03/29 00:26:30;;;;;;;38.05;26.58;;;;;;;;;;509313;29;1277;-82
2022/03/29 00:26:46;;;;;;;38.63;26.30;;;;;;;;;;508840;28;1381;-81
2022/03/29 00:27:01;;;;;;;39.83;26.30;;;;;;;;;;510880;28;1113;-81
2022/03/29 00:27:17;;;;;;;39.17;26.67;;;;;;;;;;509883;29;1603;-81
2022/03/29 00:27:34;;;;;;;35.90;26.13;;;;;;;;;;510186;29;850;-81
2022/03/29 00:27:49;;;;;;;35.88;25.85;;;;;;;;;;510452;29;1622;-81
2022/03/29 00:28:05;;;;;;;38.08;26.35;;;;;;;;;;513084;28;1297;-81
2022/03/29 00:28:20;;;;;;;39.17;27.03;;;;;;;;;;511801;29;1172;-81
2022/03/29 00:28:35;;;;;;;38.42;26.92;;;;;;;;;;509960;29;1435;-81
2022/03/29 00:28:51;;;;;;;37.37;26.17;;;;;;;;;;506384;29;1477;-81
2022/03/29 00:29:08;;;;;;;36.53;25.67;;;;;;;;;;507212;29;1194;-81
2022/03/29 00:29:23;;;;;;;35.45;25.30;;;;;;;;;;509905;29;1473;-81
2022/03/29 00:29:38;;;;;;;35.43;25.60;;;;;;;;;;509716;29;1204;-81
2022/03/29 00:29:54;;;;;;;36.05;25.83;;;;;;;;;;510079;29;1503;-81
2022/03/29 00:30:15;;;;;;;36.80;26.50;;;;;;;;;;510696;28;922;-81
2022/03/29 00:30:30;;;;;;;36.47;26.55;;;;;;;;;;511862;29;1276;-81
2022/03/29 00:30:46;;;;;;;36.15;25.60;;;;;;;;;;513200;28;1180;-81
2022/03/29 00:31:01;;;;;;;37.37;25.33;;;;;;;;;;513307;28;1296;-81
2022/03/29 00:31:19;;;;;;;38.83;25.80;;;;;;;;;;513734;28;1817;-81
2022/03/29 00:31:34;;;;;;;36.10;25.35;;;;;;;;;;516133;28;1476;-81
2022/03/29 00:31:50;;;;;;;34.35;25.55;;;;;;;;;;517094;28;861;-81
2022/03/29 00:32:06;;;;;;;36.72;25.65;;;;;;;;;;516966;28;1478;-82
2022/03/29 00:32:22;;;;;;;35.78;24.90;;;;;;;;;;512791;28;1426;-82
2022/03/29 00:32:41;;;;;;;36.57;25.17;;;;;;;;;;512659;28;1720;-82
2022/03/29 00:32:56;;;;;;;38.08;26.20;;;;;;;;;;511967;28;1401;-81
2022/03/29 00:33:11;;;;;;;36.50;25.80;;;;;;;;;;513752;28;842;-81
2022/03/29 00:33:27;;;;;;;36.73;26.00;;;;;;;;;;514461;28;1506;-81
2022/03/29 00:33:43;;;;;;;36.03;25.53;;;;;;;;;;513367;28;1246;-81
2022/03/29 00:33:58;;;;;;;35.63;24.83;;;;;;;;;;509693;29;1515;-81
2022/03/29 00:34:13;;;;;;;36.93;25.03;;;;;;;;;;512090;28;1723;-81
2022/03/29 00:34:29;;;;;;;36.78;25.27;;;;;;;;;;511799;29;1323;-81
2022/03/29 00:34:44;;;;;;;35.87;25.30;;;;;;;;;;510645;29;1336;-82
2022/03/29 00:35:00;;;;;;;36.58;25.45;;;;;;;;;;507752;29;1501;-82
2022/03/29 00:35:16;;;;;;;37.97;25.98;;;;;;;;;;509115;29;1467;-82
2022/03/29 00:35:31;;;;;;;37.53;26.10;;;;;;;;;;511852;29;1162;-82
2022/03/29 00:35:47;;;;;;;35.42;25.48;;;;;;;;;;511803;28;1703;-82
2022/03/29 00:36:02;;;;;;;36.90;25.60;;;;;;;;;;513112;28;1626;-81
2022/03/29 00:36:18;;;;;;;38.47;26.38;;;;;;;;;;511903;28;1800;-81
2022/03/29 00:36:33;;;;;;;37.30;26.43;;;;;;;;;;512581;28;1549;-81
2022/03/29 00:36:49;;;;;;;35.75;25.45;;;;;;;;;;512189;28;962;-81
2022/03/29 00:37:04;;;;;;;36.47;25.10;;;;;;;;;;512031;28;1283;-81
2022/03/29 00:37:20;;;;;;;36.65;25.35;;;;;;;;;;514345;28;1444;-81
2022/03/29 00:37:40;;;;;;;36.13;25.00;;;;;;;;;;515908;28;1075;-81
2022/03/29 00:37:56;;;;;;;35.10;24.92;;;;;;;;;;514682;28;711;-81
2022/03/29 00:38:11;;;;;;;35.47;25.15;;;;;;;;;;513456;28;1413;-82
2022/03/29 00:38:26;;;;;;;36.63;26.08;;;;;;;;;;511524;29;1190;-82
2022/03/29 00:38:42;;;;;;;35.23;25.53;;;;;;;;;;509551;29;1162;-82
2022/03/29 00:38:58;;;;;;;35.83;25.15;;;;;;;;;;510753;29;851;-82
2022/03/29 00:39:13;;;;;;;37.38;25.55;;;;;;;;;;512803;28;1595;-82
2022/03/29 00:39:29;;;;;;;37.23;25.77;;;;;;;;;;513939;28;1020;-82
2022/03/29 00:39:44;;;;;;;36.00;25.97;;;;;;;;;;511877;29;1371;-82
2022/03/29 00:40:00;;;;;;;36.00;25.50;;;;;;;;;;512047;28;1906;-82
2022/03/29 00:40:15;;;;;;;36.53;25.38;;;;;;;;;;512667;28;1441;-81
2022/03/29 00:40:31;;;;;;;36.60;25.17;;;;;;;;;;511645;28;1414;-82
2022/03/29 00:40:46;;;;;;;36.63;25.55;;;;;;;;;;513034;28;914;-82
2022/03/29 00:41:02;;;;;;;35.93;25.10;;;;;;;;;;511490;28;1481;-82
2022/03/29 00:41:17;;;;;;;35.23;24.93;;;;;;;;;;513678;28;1244;-82
2022/03/29 00:41:32;;;;;;;37.35;26.08;;;;;;;;;;513726;28;1277;-82
2022/03/29 00:41:48;;;;;;;38.47;26.57;;;;;;;;;;511431;28;1622;-82
2022/03/29 00:42:04;;;;;;;35.78;26.10;;;;;;;;;;513584;28;1067;-82
2022/03/29 00:42:19;;;;;;;35.90;25.38;;;;;;;;;;512054;28;1339;-82
2022/03/29 00:42:35;;;;;;;35.20;25.30;;;;;;;;;;511292;28;1495;-82
2022/03/29 00:42:50;;;;;;;33.80;25.50;;;;;;;;;;512909;28;1398;-82
2022/03/29 00:43:08;;;;;;;36.27;25.90;;;;;;;;;;512146;28;1411;-82
2022/03/29 00:43:24;;;;;;;41.53;26.98;;;;;;;;;;513171;28;889;-82
2022/03/29 00:43:40;;;;;;;39.63;27.00;;;;;;;;;;513231;28;1321;-82
2022/03/29 00:43:57;;;;;;;38.55;26.65;;;;;;;;;;515037;28;1501;-82
2022/03/29 00:44:16;;;;;;;38.08;26.00;;;;;;;;;;513125;28;1494;-82
2022/03/29 00:44:33;;;;;;;38.38;26.17;;;;;;;;;;509617;29;1516;-81
2022/03/29 00:44:48;;;;;;;39.40;26.88;;;;;;;;;;512025;28;1003;-81
2022/03/29 00:45:05;;;;;;;37.83;26.73;;;;;;;;;;511826;28;1451;-81
2022/03/29 00:45:21;;;;;;;38.20;26.67;;;;;;;;;;512518;28;1411;-81
2022/03/29 00:45:37;;;;;;;40.45;27.17;;;;;;;;;;513677;28;866;-81
2022/03/29 00:45:52;;;;;;;40.85;26.90;;;;;;;;;;511985;28;1036;-81
2022/03/29 00:46:08;;;;;;;39.43;26.47;;;;;;;;;;512646;28;1542;-81
2022/03/29 00:46:23;;;;;;;39.25;26.33;;;;;;;;;;515646;28;968;-81
2022/03/29 00:46:39;;;;;;;36.83;26.30;;;;;;;;;;515827;28;1122;-81
2022/03/29 00:46:55;;;;;;;37.47;26.73;;;;;;;;;;515922;28;853;-81
2022/03/29 00:47:10;;;;;;;38.67;27.20;;;;;;;;;;516935;28;1039;-81
2022/03/29 00:47:26;;;;;;;38.43;27.07;;;;;;;;;;518074;28;995;-81
2022/03/29 00:47:42;;;;;;;37.08;26.90;;;;;;;;;;517975;28;1625;-81
2022/03/29 00:47:57;;;;;;;35.05;26.20;;;;;;;;;;517212;28;1320;-81
2022/03/29 00:48:13;;;;;;;38.50;26.87;;;;;;;;;;516039;28;1502;-81
2022/03/29 00:48:29;;;;;;;42.38;27.80;;;;;;;;;;515820;28;1417;-82
2022/03/29 00:48:45;;;;;;;41.23;27.10;;;;;;;;;;513752;28;1495;-82
2022/03/29 00:49:00;;;;;;;39.27;26.93;;;;;;;;;;513891;28;1468;-81
2022/03/29 00:49:16;;;;;;;37.83;27.07;;;;;;;;;;513877;28;1372;-82
2022/03/29 00:49:31;;;;;;;36.17;26.67;;;;;;;;;;513388;28;1516;-82
2022/03/29 00:49:47;;;;;;;35.43;25.93;;;;;;;;;;510396;29;1142;-82
2022/03/29 00:50:04;;;;;;;37.10;26.38;;;;;;;;;;513304;28;1543;-82
2022/03/29 00:50:20;;;;;;;37.90;27.08;;;;;;;;;;514101;28;1305;-82
2022/03/29 00:50:37;;;;;;;39.22;27.23;;;;;;;;;;515786;28;912;-82
2022/03/29 00:50:53;;;;;;;40.83;27.83;;;;;;;;;;511802;28;1436;-81
2022/03/29 00:51:10;;;;;;;41.72;27.73;;;;;;;;;;511658;29;1048;-81
2022/03/29 00:51:27;;;;;;;39.90;26.98;;;;;;;;;;512649;28;1491;-81
2022/03/29 00:51:42;;;;;;;38.05;26.77;;;;;;;;;;515058;28;913;-81
2022/03/29 00:52:01;;;;;;;36.88;26.77;;;;;;;;;;513734;28;1248;-81
2022/03/29 00:52:17;;;;;;;38.38;27.23;;;;;;;;;;513474;28;1326;-82
2022/03/29 00:52:33;;;;;;;39.38;27.08;;;;;;;;;;512208;28;1375;-82
2022/03/29 00:52:49;;;;;;;42.43;27.57;;;;;;;;;;515206;28;1438;-82
2022/03/29 00:53:05;;;;;;;42.73;28.27;;;;;;;;;;513967;28;1629;-82
2022/03/29 00:53:23;;;;;;;38.70;27.63;;;;;;;;;;511600;29;1229;-82
2022/03/29 00:53:39;;;;;;;37.13;27.23;;;;;;;;;;511700;29;1467;-82
2022/03/29 00:53:55;;;;;;;38.53;27.17;;;;;;;;;;509786;29;1329;-82
2022/03/29 00:54:12;;;;;;;41.88;27.27;;;;;;;;;;507673;29;1324;-82
2022/03/29 00:54:33;;;;;;;43.55;27.35;;;;;;;;;;507590;29;1334;-82
2022/03/29 00:54:49;;;;;;;41.67;28.35;;;;;;;;;;505607;29;1452;-82
2022/03/29 00:55:06;;;;;;;41.80;28.20;;;;;;;;;;507359;29;1632;-81
2022/03/29 00:55:21;;;;;;;40.08;27.38;;;;;;;;;;507724;29;1403;-81
2022/03/29 00:55:37;;;;;;;40.53;27.53;;;;;;;;;;510677;29;1597;-81
2022/03/29 00:55:54;;;;;;;40.55;27.90;;;;;;;;;;509639;29;1326;-82
2022/03/29 00:56:10;;;;;;;39.50;27.55;;;;;;;;;;507225;29;1411;-82
2022/03/29 00:56:25;;;;;;;39.03;27.23;;;;;;;;;;508813;29;1312;-82
2022/03/29 00:56:40;;;;;;;39.70;27.23;;;;;;;;;;509076;29;1446;-82
2022/03/29 00:57:00;;;;;;;39.00;27.05;;;;;;;;;;505208;29;1352;-82
2022/03/29 00:57:16;;;;;;;40.90;27.25;;;;;;;;;;507281;29;1390;-82
2022/03/29 00:57:34;;;;;;;41.35;27.10;;;;;;;;;;507505;29;1425;-82
2022/03/29 00:57:50;;;;;;;39.63;26.45;;;;;;;;;;509659;29;1418;-82
2022/03/29 00:58:09;;;;;;;37.85;26.45;;;;;;;;;;510065;29;1556;-82
2022/03/29 00:58:24;;;;;;;39.25;27.38;;;;;;;;;;509165;29;1542;-82
2022/03/29 00:58:40;;;;;;;40.85;26.85;;;;;;;;;;505811;29;1473;-81
2022/03/29 00:58:55;;;;;;;38.67;26.47;;;;;;;;;;506924;29;1162;-82
2022/03/29 00:59:11;;;;;;;37.13;26.15;;;;;;;;;;509490;28;991;-81
2022/03/29 00:59:27;;;;;;;36.70;25.83;;;;;;;;;;512660;28;1012;-81
2022/03/29 00:59:45;;;;;;;36.75;26.27;;;;;;;;;;513414;28;1408;-81
2022/03/29 01:00:02;;;;;;;37.42;26.30;;;;;;;;;;511070;28;1968;-81
2022/03/29 01:00:17;;;;;;;37.88;26.25;;;;;;;;;;511430;28;1428;-81
2022/03/29 01:00:35;;;;;;;37.47;26.25;;;;;;;;;;511308;28;1490;-81
2022/03/29 01:00:51;;;;;;;38.25;26.27;;;;;;;;;;511642;29;1545;-82
2022/03/29 01:01:09;;;;;;;36.45;26.08;;;;;;;;;;511662;29;1437;-82
2022/03/29 01:01:25;;;;;;;35.08;25.55;;;;;;;;;;511727;29;898;-81
2022/03/29 01:01:40;;;;;;;35.97;25.73;;;;;;;;;;511830;29;807;-81
2022/03/29 01:01:57;;;;;;;37.63;26.17;;;;;;;;;;509806;29;1317;-81
2022/03/29 01:02:13;;;;;;;37.30;25.73;;;;;;;;;;510968;29;859;-81
2022/03/29 01:02:28;;;;;;;34.90;25.35;;;;;;;;;;510832;29;1323;-81
2022/03/29 01:02:44;;;;;;;35.25;25.40;;;;;;;;;;510617;29;1301;-82
2022/03/29 01:03:03;;;;;;;36.72;25.73;;;;;;;;;;511815;28;1269;-82
2022/03/29 01:03:18;;;;;;;37.47;25.85;;;;;;;;;;512708;28;1723;-82
2022/03/29 01:03:34;;;;;;;38.27;26.40;;;;;;;;;;509715;29;1238;-81
2022/03/29 01:03:49;;;;;;;39.65;26.77;;;;;;;;;;509056;29;1461;-81
2022/03/29 01:04:06;;;;;;;40.07;27.00;;;;;;;;;;511196;28;1440;-81
2022/03/29 01:04:22;;;;;;;39.13;26.33;;;;;;;;;;510589;28;1523;-81
2022/03/29 01:04:37;;;;;;;38.03;25.90;;;;;;;;;;511079;28;1626;-82
2022/03/29 01:04:53;;;;;;;36.80;25.90;;;;;;;;;;513473;28;1680;-82
2022/03/29 01:05:08;;;;;;;37.10;25.97;;;;;;;;;;513331;28;1574;-82
2022/03/29 01:05:26;;;;;;;37.22;26.00;;;;;;;;;;513399;28;1536;-81
2022/03/29 01:05:41;;;;;;;37.88;26.27;;;;;;;;;;513568;28;1448;-82
2022/03/29 01:05:57;;;;;;;38.13;26.80;;;;;;;;;;514593;28;1045;-82
2022/03/29 01:06:12;;;;;;;40.67;26.87;;;;;;;;;;514853;28;1470;-82
2022/03/29 01:06:29;;;;;;;39.92;26.52;;;;;;;;;;513892;28;1335;-82
2022/03/29 01:06:44;;;;;;;39.75;26.70;;;;;;;;;;512282;28;1399;-82
2022/03/29 01:07:00;;;;;;;39.00;26.50;;;;;;;;;;511278;28;1366;-82
2022/03/29 01:07:16;;;;;;;36.92;26.23;;;;;;;;;;513396;28;1460;-81
2022/03/29 01:07:32;;;;;;;37.92;26.25;;;;;;;;;;510594;28;1539;-81
2022/03/29 01:07:47;;;;;;;40.90;26.30;;;;;;;;;;513587;28;1479;-81
2022/03/29 01:08:05;;;;;;;40.80;26.42;;;;;;;;;;513652;28;1530;-81
2022/03/29 01:08:20;;;;;;;38.60;26.15;;;;;;;;;;514315;28;1531;-81
2022/03/29 01:08:36;;;;;;;37.42;26.23;;;;;;;;;;515420;28;1455;-81
2022/03/29 01:08:51;;;;;;;37.95;26.55;;;;;;;;;;515233;28;1387;-81
2022/03/29 01:09:06;;;;;;;38.90;26.87;;;;;;;;;;513425;28;1692;-81
2022/03/29 01:09:22;;;;;;;38.87;26.90;;;;;;;;;;514794;28;944;-81
2022/03/29 01:09:38;;;;;;;38.20;26.23;;;;;;;;;;515731;28;929;-81
2022/03/29 01:09:53;;;;;;;36.93;26.37;;;;;;;;;;515807;28;1039;-81
2022/03/29 01:10:09;;;;;;;37.47;26.50;;;;;;;;;;514040;28;1664;-81
2022/03/29 01:10:25;;;;;;;39.92;26.17;;;;;;;;;;511510;28;1263;-81
2022/03/29 01:10:43;;;;;;;39.50;26.38;;;;;;;;;;509948;29;1468;-81
2022/03/29 01:10:59;;;;;;;36.50;26.00;;;;;;;;;;514183;28;1117;-81
2022/03/29 01:11:15;;;;;;;35.63;25.88;;;;;;;;;;514825;28;1538;-81
2022/03/29 01:11:31;;;;;;;36.47;25.83;;;;;;;;;;511450;28;1609;-81
2022/03/29 01:11:47;;;;;;;37.95;25.85;;;;;;;;;;510524;29;1398;-81
2022/03/29 01:12:03;;;;;;;37.20;25.70;;;;;;;;;;511915;29;889;-81
2022/03/29 01:12:19;;;;;;;35.60;25.40;;;;;;;;;;510811;29;1395;-81
2022/03/29 01:12:36;;;;;;;36.38;25.40;;;;;;;;;;513004;28;925;-81
2022/03/29 01:12:52;;;;;;;36.85;25.52;;;;;;;;;;511805;29;1428;-81
2022/03/29 01:13:07;;;;;;;37.47;25.48;;;;;;;;;;511871;29;830;-81
2022/03/29 01:13:23;;;;;;;38.93;25.67;;;;;;;;;;512379;28;1295;-81
2022/03/29 01:13:41;;;;;;;37.55;26.20;;;;;;;;;;514740;28;917;-81
2022/03/29 01:13:56;;;;;;;38.05;26.30;;;;;;;;;;515431;28;1549;-81
2022/03/29 01:14:12;;;;;;;38.40;26.33;;;;;;;;;;513793;28;1228;-81
2022/03/29 01:14:28;;;;;;;37.53;25.40;;;;;;;;;;511970;28;1523;-81
2022/03/29 01:14:43;;;;;;;36.92;25.02;;;;;;;;;;513992;28;1277;-81
2022/03/29 01:15:03;;;;;;;36.03;24.83;;;;;;;;;;514903;28;1475;-81
2022/03/29 01:15:19;;;;;;;37.58;24.83;;;;;;;;;;513420;28;1453;-82
2022/03/29 01:15:37;;;;;;;38.00;24.95;;;;;;;;;;513013;28;1016;-82
2022/03/29 01:15:52;;;;;;;36.75;25.33;;;;;;;;;;509774;29;1445;-82
2022/03/29 01:17:54;;;;;;;37.80;25.25;;;;;;;;;;515657;28;768;-81
2022/03/29 01:18:10;;;;;;;35.92;25.63;;;;;;;;;;517834;28;1382;-81
2022/03/29 01:18:28;;;;;;;36.58;25.05;;;;;;;;;;515723;28;1231;-81
2022/03/29 01:18:45;;;;;;;38.10;25.00;;;;;;;;;;513814;28;1271;-81
2022/03/29 01:19:05;;;;;;;37.80;25.65;;;;;;;;;;513848;28;1021;-81
2022/03/29 01:19:21;;;;;;;38.72;26.02;;;;;;;;;;513904;28;901;-81
2022/03/29 01:19:37;;;;;;;39.20;26.15;;;;;;;;;;513693;28;1386;-81
2022/03/29 01:19:53;;;;;;;38.55;25.42;;;;;;;;;;512301;28;1369;-81
2022/03/29 01:20:13;;;;;;;37.22;25.05;;;;;;;;;;513542;28;1962;-81
2022/03/29 01:20:31;;;;;;;36.00;24.98;;;;;;;;;;515848;28;885;-81
2022/03/29 01:20:51;;;;;;;38.50;25.65;;;;;;;;;;515229;28;1596;-81
2022/03/29 01:21:08;;;;;;;35.28;24.67;;;;;;;;;;514097;28;1653;-81
2022/03/29 01:21:29;;;;;;;33.67;23.92;;;;;;;;;;514334;28;1031;-81
2022/03/29 01:21:56;;;;;;;36.00;24.38;;;;;;;;;;514304;28;1495;-81
2022/03/29 01:22:12;;;;;;;35.55;25.38;;;;;;;;;;515790;28;1498;-81
2022/03/29 01:22:29;;;;;;;36.53;24.75;;;;;;;;;;514844;28;1232;-81
2022/03/29 01:22:47;;;;;;;37.65;24.80;;;;;;;;;;511591;28;1395;-81
2022/03/29 01:23:03;;;;;;;36.28;25.17;;;;;;;;;;513070;28;1436;-81
2022/03/29 01:23:19;;;;;;;36.42;25.55;;;;;;;;;;513845;28;1434;-81
2022/03/29 01:23:37;;;;;;;36.67;25.60;;;;;;;;;;514859;28;866;-81
2022/03/29 01:23:52;;;;;;;37.53;25.65;;;;;;;;;;513643;28;1696;-81
2022/03/29 01:24:11;;;;;;;36.42;25.50;;;;;;;;;;514761;28;1503;-81
2022/03/29 01:24:28;;;;;;;35.92;25.27;;;;;;;;;;515681;28;1312;-81
2022/03/29 01:24:43;;;;;;;36.42;25.00;;;;;;;;;;513752;28;1590;-81
2022/03/29 01:24:59;;;;;;;35.72;24.92;;;;;;;;;;514966;28;1416;-81
2022/03/29 01:25:20;;;;;;;35.77;25.20;;;;;;;;;;516379;28;1663;-81
2022/03/29 01:25:38;;;;;;;35.78;25.30;;;;;;;;;;513526;28;925;-81
2022/03/29 01:25:53;;;;;;;36.45;25.50;;;;;;;;;;513617;28;1577;-81
2022/03/29 01:26:09;;;;;;;37.03;25.48;;;;;;;;;;513754;28;1004;-81
2022/03/29 01:26:25;;;;;;;39.40;25.90;;;;;;;;;;515343;28;1312;-81
2022/03/29 01:26:41;;;;;;;37.97;25.50;;;;;;;;;;513900;28;1485;-81
2022/03/29 01:26:59;;;;;;;35.58;24.80;;;;;;;;;;514391;28;1612;-81
2022/03/29 01:27:14;;;;;;;36.78;25.30;;;;;;;;;;513841;28;857;-81
2022/03/29 01:27:32;;;;;;;35.80;25.13;;;;;;;;;;513582;28;1391;-81
2022/03/29 01:27:48;;;;;;;35.33;25.40;;;;;;;;;;513608;28;1408;-81
2022/03/29 01:28:05;;;;;;;37.28;25.77;;;;;;;;;;511730;29;1368;-81
2022/03/29 01:28:22;;;;;;;39.60;26.65;;;;;;;;;;513919;28;1456;-81
2022/03/29 01:28:38;;;;;;;40.28;26.95;;;;;;;;;;515647;28;1384;-81
2022/03/29 01:28:54;;;;;;;37.72;26.15;;;;;;;;;;515643;28;1031;-81
2022/03/29 01:29:10;;;;;;;39.35;26.20;;;;;;;;;;515741;28;1067;-82
2022/03/29 01:29:26;;;;;;;40.47;26.07;;;;;;;;;;515861;28;1011;-82
2022/03/29 01:29:43;;;;;;;37.88;26.08;;;;;;;;;;514850;28;1177;-82
2022/03/29 01:29:59;;;;;;;38.20;26.50;;;;;;;;;;515812;28;917;-82
2022/03/29 01:30:16;;;;;;;38.47;26.17;;;;;;;;;;515867;28;877;-81
2022/03/29 01:30:33;;;;;;;37.60;26.02;;;;;;;;;;514077;28;1451;-82
2022/03/29 01:30:50;;;;;;;37.88;26.55;;;;;;;;;;511110;29;1220;-81
2022/03/29 01:31:07;;;;;;;38.60;26.45;;;;;;;;;;509207;28;1348;-81
2022/03/29 01:31:24;;;;;;;38.95;26.77;;;;;;;;;;510027;28;1027;-81
2022/03/29 01:31:40;;;;;;;38.28;26.98;;;;;;;;;;512104;28;1460;-81
2022/03/29 01:31:57;;;;;;;39.47;26.92;;;;;;;;;;511783;29;1277;-81
2022/03/29 01:32:13;;;;;;;41.25;26.98;;;;;;;;;;512290;28;1239;-81
2022/03/29 01:32:29;;;;;;;42.47;26.73;;;;;;;;;;515023;28;967;-81
2022/03/29 01:32:47;;;;;;;41.03;26.77;;;;;;;;;;514758;28;1778;-82
2022/03/29 01:33:06;;;;;;;38.92;27.00;;;;;;;;;;513407;28;965;-82
2022/03/29 01:33:23;;;;;;;38.03;26.05;;;;;;;;;;513881;28;1617;-81
2022/03/29 01:33:44;;;;;;;38.55;26.45;;;;;;;;;;514237;28;1272;-82
2022/03/29 01:34:04;;;;;;;38.47;26.70;;;;;;;;;;514431;28;1567;-82
2022/03/29 01:34:23;;;;;;;39.30;26.83;;;;;;;;;;511597;29;1463;-81
2022/03/29 01:34:43;;;;;;;40.30;26.60;;;;;;;;;;511169;28;1644;-81
2022/03/29 01:34:59;;;;;;;37.60;26.25;;;;;;;;;;512062;28;1263;-81
2022/03/29 01:35:17;;;;;;;39.70;26.83;;;;;;;;;;513620;28;1370;-82
2022/03/29 01:35:33;;;;;;;41.13;26.98;;;;;;;;;;513649;28;1028;-82
2022/03/29 01:35:48;;;;;;;41.10;26.87;;;;;;;;;;512987;28;1452;-82
2022/03/29 01:36:04;;;;;;;41.60;27.08;;;;;;;;;;514929;28;934;-82
2022/03/29 01:36:20;;;;;;;40.08;26.80;;;;;;;;;;513007;28;1476;-81
2022/03/29 01:36:35;;;;;;;37.43;26.50;;;;;;;;;;513648;28;1518;-81
2022/03/29 01:36:51;;;;;;;36.85;26.30;;;;;;;;;;512727;28;1597;-81
2022/03/29 01:37:07;;;;;;;36.78;26.35;;;;;;;;;;511636;29;1175;-81
2022/03/29 01:37:23;;;;;;;39.10;26.77;;;;;;;;;;511795;28;1532;-81
2022/03/29 01:37:39;;;;;;;40.00;26.52;;;;;;;;;;511568;28;1399;-81
2022/03/29 01:37:55;;;;;;;38.90;26.10;;;;;;;;;;513459;28;1409;-81
2022/03/29 01:38:10;;;;;;;36.45;25.40;;;;;;;;;;513763;28;1242;-82
2022/03/29 01:38:26;;;;;;;37.27;25.97;;;;;;;;;;512148;28;1531;-81
2022/03/29 01:38:41;;;;;;;40.05;26.77;;;;;;;;;;512390;28;1374;-81
2022/03/29 01:38:57;;;;;;;38.57;26.67;;;;;;;;;;512226;28;904;-81